<?xml version="1.0" encoding="UTF-8" standalone="no" ?>
<gpx xmlns="http://www.topografix.com/GPX/1/1" xmlns:xsi="http://www.w3.org/2001/XMLSchema-instance" xsi:schemaLocation="http://www.topografix.com/GPX/1/1 http://www.topografix.com/GPX/1/1/gpx.xsd" version="1.1" creator="VisuGPX - https://www.visugpx.com">
  <metadata>
    <name>la dent de Vaulion</name>
    <desc><![CDATA[jolie ballade,vue étonnante au sommet un ,360° sur les Alpes et le Jura. Montée en foret ]]></desc>
  </metadata>
  <trk>
    <name><![CDATA[6434552-la dent du vaulion]]></name>
    <trkseg>
      <trkpt lat="46.65913" lon="6.34761">
        <ele>1154</ele>
        <time>2018-02-24T11:37:25Z</time>
      </trkpt>
      <trkpt lat="46.6601" lon="6.34735">
        <ele>1147</ele>
        <time>2018-02-24T11:38:25Z</time>
      </trkpt>
      <trkpt lat="46.66116" lon="6.34504">
        <ele>1125</ele>
        <time>2018-02-24T11:39:25Z</time>
      </trkpt>
      <trkpt lat="46.66154" lon="6.34328">
        <ele>1110</ele>
        <time>2018-02-24T11:40:25Z</time>
      </trkpt>
      <trkpt lat="46.66254" lon="6.34246">
        <ele>1114</ele>
        <time>2018-02-24T11:41:25Z</time>
      </trkpt>
      <trkpt lat="46.66507" lon="6.34276">
        <ele>1128</ele>
        <time>2018-02-24T11:42:25Z</time>
      </trkpt>
      <trkpt lat="46.66702" lon="6.34246">
        <ele>1124</ele>
        <time>2018-02-24T11:43:25Z</time>
      </trkpt>
      <trkpt lat="46.66672" lon="6.34319">
        <ele>1126</ele>
        <time>2018-02-24T11:44:25Z</time>
      </trkpt>
      <trkpt lat="46.66725" lon="6.34388">
        <ele>1140</ele>
        <time>2018-02-24T11:45:25Z</time>
      </trkpt>
      <trkpt lat="46.66808" lon="6.34366">
        <ele>1144</ele>
        <time>2018-02-24T11:46:25Z</time>
      </trkpt>
      <trkpt lat="46.66861" lon="6.34409">
        <ele>1159</ele>
        <time>2018-02-24T11:47:25Z</time>
      </trkpt>
      <trkpt lat="46.67005" lon="6.34396">
        <ele>1176</ele>
        <time>2018-02-24T11:48:25Z</time>
      </trkpt>
      <trkpt lat="46.67126" lon="6.34379">
        <ele>1197</ele>
        <time>2018-02-24T11:49:25Z</time>
      </trkpt>
      <trkpt lat="46.67276" lon="6.34323">
        <ele>1197</ele>
        <time>2018-02-24T11:50:25Z</time>
      </trkpt>
      <trkpt lat="46.67329" lon="6.34358">
        <ele>1203</ele>
        <time>2018-02-24T11:51:25Z</time>
      </trkpt>
      <trkpt lat="46.67329" lon="6.34448">
        <ele>1217</ele>
        <time>2018-02-24T11:52:25Z</time>
      </trkpt>
      <trkpt lat="46.67391" lon="6.34431">
        <ele>1221</ele>
        <time>2018-02-24T11:53:25Z</time>
      </trkpt>
      <trkpt lat="46.67465" lon="6.34401">
        <ele>1235</ele>
        <time>2018-02-24T11:54:25Z</time>
      </trkpt>
      <trkpt lat="46.67462" lon="6.34487">
        <ele>1250</ele>
        <time>2018-02-24T11:55:25Z</time>
      </trkpt>
      <trkpt lat="46.674" lon="6.34551">
        <ele>1252</ele>
        <time>2018-02-24T11:56:25Z</time>
      </trkpt>
      <trkpt lat="46.67441" lon="6.34581">
        <ele>1264</ele>
        <time>2018-02-24T11:57:25Z</time>
      </trkpt>
      <trkpt lat="46.67597" lon="6.34559">
        <ele>1286</ele>
        <time>2018-02-24T11:58:25Z</time>
      </trkpt>
      <trkpt lat="46.67641" lon="6.34525">
        <ele>1289</ele>
        <time>2018-02-24T11:59:25Z</time>
      </trkpt>
      <trkpt lat="46.67635" lon="6.34594">
        <ele>1301</ele>
        <time>2018-02-24T12:00:25Z</time>
      </trkpt>
      <trkpt lat="46.67588" lon="6.34671">
        <ele>1311</ele>
        <time>2018-02-24T12:01:25Z</time>
      </trkpt>
      <trkpt lat="46.67491" lon="6.348">
        <ele>1319</ele>
        <time>2018-02-24T12:02:25Z</time>
      </trkpt>
      <trkpt lat="46.67574" lon="6.34795">
        <ele>1331</ele>
        <time>2018-02-24T12:03:25Z</time>
      </trkpt>
      <trkpt lat="46.67724" lon="6.34765">
        <ele>1346</ele>
        <time>2018-02-24T12:04:25Z</time>
      </trkpt>
      <trkpt lat="46.67815" lon="6.34753">
        <ele>1351</ele>
        <time>2018-02-24T12:05:25Z</time>
      </trkpt>
      <trkpt lat="46.67871" lon="6.34826">
        <ele>1371</ele>
        <time>2018-02-24T12:06:25Z</time>
      </trkpt>
      <trkpt lat="46.67906" lon="6.34856">
        <ele>1379</ele>
        <time>2018-02-24T12:07:25Z</time>
      </trkpt>
      <trkpt lat="46.6795" lon="6.3492">
        <ele>1397</ele>
        <time>2018-02-24T12:08:25Z</time>
      </trkpt>
      <trkpt lat="46.67977" lon="6.35057">
        <ele>1409</ele>
        <time>2018-02-24T12:09:25Z</time>
      </trkpt>
      <trkpt lat="46.68101" lon="6.35062">
        <ele>1422</ele>
        <time>2018-02-24T12:10:25Z</time>
      </trkpt>
      <trkpt lat="46.68186" lon="6.35053">
        <ele>1435</ele>
        <time>2018-02-24T12:11:25Z</time>
      </trkpt>
      <trkpt lat="46.68257" lon="6.3507">
        <ele>1446</ele>
        <time>2018-02-24T12:12:25Z</time>
      </trkpt>
      <trkpt lat="46.68342" lon="6.35092">
        <ele>1461</ele>
        <time>2018-02-24T12:13:25Z</time>
      </trkpt>
      <trkpt lat="46.68404" lon="6.3513">
        <ele>1458</ele>
        <time>2018-02-24T12:14:25Z</time>
      </trkpt>
      <trkpt lat="46.68333" lon="6.3513">
        <ele>1460</ele>
        <time>2018-02-24T12:15:25Z</time>
      </trkpt>
      <trkpt lat="46.68239" lon="6.35109">
        <ele>1441</ele>
        <time>2018-02-24T12:16:25Z</time>
      </trkpt>
      <trkpt lat="46.68148" lon="6.35104">
        <ele>1426</ele>
        <time>2018-02-24T12:17:25Z</time>
      </trkpt>
      <trkpt lat="46.68048" lon="6.35122">
        <ele>1412</ele>
        <time>2018-02-24T12:18:25Z</time>
      </trkpt>
      <trkpt lat="46.67939" lon="6.35079">
        <ele>1405</ele>
        <time>2018-02-24T12:19:25Z</time>
      </trkpt>
      <trkpt lat="46.67853" lon="6.35079">
        <ele>1397</ele>
        <time>2018-02-24T12:20:25Z</time>
      </trkpt>
      <trkpt lat="46.67762" lon="6.35066">
        <ele>1384</ele>
        <time>2018-02-24T12:21:25Z</time>
      </trkpt>
      <trkpt lat="46.67694" lon="6.35036">
        <ele>1377</ele>
        <time>2018-02-24T12:22:25Z</time>
      </trkpt>
      <trkpt lat="46.67606" lon="6.35014">
        <ele>1364</ele>
        <time>2018-02-24T12:23:25Z</time>
      </trkpt>
      <trkpt lat="46.67494" lon="6.3501">
        <ele>1345</ele>
        <time>2018-02-24T12:24:25Z</time>
      </trkpt>
      <trkpt lat="46.67388" lon="6.34993">
        <ele>1319</ele>
        <time>2018-02-24T12:25:25Z</time>
      </trkpt>
      <trkpt lat="46.67338" lon="6.35019">
        <ele>1308</ele>
        <time>2018-02-24T12:26:25Z</time>
      </trkpt>
      <trkpt lat="46.67288" lon="6.35036">
        <ele>1297</ele>
        <time>2018-02-24T12:27:25Z</time>
      </trkpt>
      <trkpt lat="46.67314" lon="6.34976">
        <ele>1301</ele>
        <time>2018-02-24T12:28:25Z</time>
      </trkpt>
      <trkpt lat="46.67267" lon="6.34993">
        <ele>1291</ele>
        <time>2018-02-24T12:29:25Z</time>
      </trkpt>
      <trkpt lat="46.67205" lon="6.34967">
        <ele>1277</ele>
        <time>2018-02-24T12:30:25Z</time>
      </trkpt>
      <trkpt lat="46.67129" lon="6.34959">
        <ele>1262</ele>
        <time>2018-02-24T12:31:25Z</time>
      </trkpt>
      <trkpt lat="46.67041" lon="6.34959">
        <ele>1240</ele>
        <time>2018-02-24T12:32:25Z</time>
      </trkpt>
      <trkpt lat="46.67011" lon="6.34894">
        <ele>1234</ele>
        <time>2018-02-24T12:33:25Z</time>
      </trkpt>
      <trkpt lat="46.67029" lon="6.34834">
        <ele>1239</ele>
        <time>2018-02-24T12:34:25Z</time>
      </trkpt>
      <trkpt lat="46.6697" lon="6.34787">
        <ele>1235</ele>
        <time>2018-02-24T12:35:25Z</time>
      </trkpt>
      <trkpt lat="46.66876" lon="6.34808">
        <ele>1234</ele>
        <time>2018-02-24T12:36:25Z</time>
      </trkpt>
      <trkpt lat="46.66781" lon="6.3483">
        <ele>1231</ele>
        <time>2018-02-24T12:37:25Z</time>
      </trkpt>
      <trkpt lat="46.66746" lon="6.34868">
        <ele>1224</ele>
        <time>2018-02-24T12:38:25Z</time>
      </trkpt>
      <trkpt lat="46.66667" lon="6.34834">
        <ele>1221</ele>
        <time>2018-02-24T12:39:25Z</time>
      </trkpt>
      <trkpt lat="46.66625" lon="6.34894">
        <ele>1204</ele>
        <time>2018-02-24T12:40:25Z</time>
      </trkpt>
      <trkpt lat="46.66563" lon="6.34864">
        <ele>1193</ele>
        <time>2018-02-24T12:41:25Z</time>
      </trkpt>
      <trkpt lat="46.66528" lon="6.34778">
        <ele>1186</ele>
        <time>2018-02-24T12:42:25Z</time>
      </trkpt>
      <trkpt lat="46.66446" lon="6.34731">
        <ele>1175</ele>
        <time>2018-02-24T12:43:25Z</time>
      </trkpt>
      <trkpt lat="46.66322" lon="6.34718">
        <ele>1165</ele>
        <time>2018-02-24T12:44:25Z</time>
      </trkpt>
      <trkpt lat="46.66195" lon="6.34735">
        <ele>1160</ele>
        <time>2018-02-24T12:45:25Z</time>
      </trkpt>
      <trkpt lat="46.65914" lon="6.34762">
        <ele>1154</ele>
        <time>2018-02-24T12:46:25Z</time>
      </trkpt>
    </trkseg>
  </trk>
</gpx>